Time;durP1;ratioP1;P1;durP2;ratioP2;P2;SDS_P1;SDS_P2;PMS_P1;PMS_P2;Temp;Humidity;BMP_temperature;BMP_pressure;BME280_temperature;BME280_humidity;BME280_pressure;Samples;Min_cycle;Max_cycle;Signal;HPM_P1;HPM_P2
2024/01/26 00:00:37;;;;;;;28.20;20.80;;;;;;;8.94;100.00;102344.44;5032919;28;20067;-76
2024/01/26 00:03:03;;;;;;;30.23;20.63;;;;;;;8.96;100.00;102345.25;5032883;28;20124;-75
2024/01/26 00:05:30;;;;;;;28.70;20.75;;;;;;;8.96;100.00;102340.09;5032877;28;20052;-78
2024/01/26 00:07:55;;;;;;;30.63;20.65;;;;;;;8.96;100.00;102334.09;5032893;28;20021;-77
2024/01/26 00:10:21;;;;;;;27.75;20.92;;;;;;;8.81;100.00;102313.06;5032541;28;20031;-77
2024/01/26 00:12:46;;;;;;;27.80;20.63;;;;;;;8.99;100.00;102328.84;5032378;28;20043;-75
2024/01/26 00:15:11;;;;;;;28.02;20.25;;;;;;;8.89;100.00;102310.25;5032418;28;20090;-76
2024/01/26 00:17:37;;;;;;;30.00;20.83;;;;;;;8.99;100.00;102328.84;5033077;28;20033;-78
2024/01/26 00:20:02;;;;;;;28.65;20.50;;;;;;;9.00;100.00;102322.78;5032792;28;20040;-76
2024/01/26 00:22:28;;;;;;;30.00;21.05;;;;;;;8.99;100.00;102318.53;5032629;28;20108;-76
2024/01/26 00:24:53;;;;;;;25.08;18.98;;;;;;;8.99;100.00;102318.53;5032588;28;20095;-76
2024/01/26 00:27:18;;;;;;;25.45;19.98;;;;;;;8.99;100.00;102321.09;5032713;28;20064;-76
2024/01/26 00:29:44;;;;;;;28.15;20.80;;;;;;;8.99;100.00;102310.81;5032379;28;20171;-76
2024/01/26 00:32:09;;;;;;;23.85;18.92;;;;;;;8.91;100.00;102300.75;5032709;28;20052;-78
2024/01/26 00:34:35;;;;;;;23.45;19.13;;;;;;;9.00;100.00;102320.22;5032657;28;20107;-78
2024/01/26 00:37:02;;;;;;;27.75;19.77;;;;;;;9.02;100.00;102313.25;5032529;28;20029;-76
2024/01/26 00:39:27;;;;;;;23.52;18.67;;;;;;;8.96;100.00;102303.19;5032249;28;20465;-76
2024/01/26 00:41:52;;;;;;;25.90;19.45;;;;;;;8.98;100.00;102309.13;5032572;28;20030;-77
2024/01/26 00:44:18;;;;;;;24.25;19.38;;;;;;;9.02;100.00;102321.84;5032343;28;20052;-78
2024/01/26 00:46:43;;;;;;;30.38;20.58;;;;;;;9.02;100.00;102313.25;5032493;28;20033;-78
2024/01/26 00:49:08;;;;;;;22.25;18.80;;;;;;;9.03;100.00;102304.63;5032569;28;20025;-76
2024/01/26 00:51:34;;;;;;;23.15;18.08;;;;;;;9.04;100.00;102311.47;5032334;28;20036;-76
2024/01/26 00:53:59;;;;;;;22.02;17.58;;;;;;;9.00;100.00;102295.28;5032488;28;20095;-76
2024/01/26 00:56:24;;;;;;;22.48;17.15;;;;;;;9.05;100.00;102302.88;5032331;28;20025;-76
2024/01/26 00:58:50;;;;;;;22.45;16.48;;;;;;;9.05;100.00;102298.56;5032326;28;20029;-77
2024/01/26 01:01:15;;;;;;;20.55;16.38;;;;;;;9.03;100.00;102296.91;5032242;28;20037;-76
2024/01/26 01:03:41;;;;;;;22.90;17.85;;;;;;;9.07;100.00;102301.94;5032270;28;20025;-76
2024/01/26 01:06:06;;;;;;;21.08;16.85;;;;;;;8.90;100.00;102281.88;5032299;28;20087;-76
2024/01/26 01:08:31;;;;;;;20.13;15.43;;;;;;;9.08;100.00;102302.78;5032191;28;20057;-76
2024/01/26 01:10:57;;;;;;;20.85;16.25;;;;;;;9.02;100.00;102279.78;5032077;28;20021;-76
2024/01/26 01:13:22;;;;;;;19.20;14.98;;;;;;;-144.26;100.00;64884.69;5032076;28;20382;-76
2024/01/26 01:15:48;;;;;;;20.65;15.88;;;;;;;-144.26;100.00;64884.69;5014130;28;20091;-76
2024/01/26 01:18:13;;;;;;;17.90;14.18;;;;;;;-144.26;100.00;64884.69;5032007;28;20056;-76
2024/01/26 01:20:38;;;;;;;17.42;13.40;;;;;;;-144.26;100.00;64884.69;5031975;28;20115;-76
2024/01/26 01:23:04;;;;;;;18.85;14.52;;;;;;;-144.26;100.00;64884.69;5032061;28;20036;-76
2024/01/26 01:25:30;;;;;;;16.80;13.25;;;;;;;-144.26;100.00;64884.69;5034228;28;20072;-76
2024/01/26 01:27:55;;;;;;;17.35;13.43;;;;;;;-144.26;100.00;64884.69;5035905;28;20033;-76
2024/01/26 01:30:20;;;;;;;18.05;13.70;;;;;;;-144.26;100.00;64884.69;5035707;28;20088;-76
2024/01/26 01:32:46;;;;;;;18.90;13.05;;;;;;;-144.26;100.00;64884.69;5017617;28;20045;-76
2024/01/26 01:35:11;;;;;;;17.50;12.82;;;;;;;-144.26;100.00;64884.69;5035720;28;20060;-76
2024/01/26 01:37:37;;;;;;;15.25;11.93;;;;;;;-144.26;100.00;64884.69;5035418;28;20026;-76
2024/01/26 01:40:02;;;;;;;16.75;12.13;;;;;;;-144.26;100.00;64884.69;5035536;28;20040;-76
2024/01/26 01:42:28;;;;;;;14.00;11.30;;;;;;;-144.26;100.00;64884.69;5035506;28;20491;-77
2024/01/26 01:44:53;;;;;;;16.77;11.48;;;;;;;-144.26;100.00;64884.69;5035680;28;20033;-77
2024/01/26 01:47:19;;;;;;;15.25;11.00;;;;;;;-144.26;100.00;64884.69;5035175;28;20030;-76
2024/01/26 01:49:44;;;;;;;15.35;11.18;;;;;;;-144.26;100.00;64884.69;5035332;28;20064;-76
2024/01/26 01:52:17;;;;;;;14.00;10.85;;;;;;;-144.26;100.00;64884.69;5035307;28;20069;-76
2024/01/26 01:54:43;;;;;;;14.30;10.82;;;;;;;-144.26;100.00;64884.69;5034862;28;20041;-76
2024/01/26 01:57:14;;;;;;;12.25;9.40;;;;;;;-144.26;100.00;64884.69;5035140;28;20017;-76
2024/01/26 01:59:41;;;;;;;15.70;10.23;;;;;;;-144.26;100.00;64884.69;5034826;28;20034;-76
2024/01/26 02:02:06;;;;;;;13.80;9.55;;;;;;;-144.26;100.00;64884.69;5034817;28;20128;-76
2024/01/26 02:04:32;;;;;;;12.27;9.55;;;;;;;-144.26;100.00;64884.69;5035135;28;20513;-76
2024/01/26 02:06:59;;;;;;;12.57;8.95;;;;;;;-144.26;100.00;64884.69;5035304;28;20022;-76
2024/01/26 02:09:25;;;;;;;13.40;9.25;;;;;;;-144.26;100.00;64884.69;5035019;28;20385;-75
2024/01/26 02:11:51;;;;;;;11.98;8.55;;;;;;;-144.26;100.00;64884.69;5034723;28;20025;-76
2024/01/26 02:14:17;;;;;;;11.65;8.43;;;;;;;-144.26;100.00;64884.69;5034538;28;20030;-76
2024/01/26 02:17:03;;;;;;;11.38;7.97;;;;;;;-144.26;100.00;64884.69;5034647;28;20465;-76
2024/01/26 02:19:32;;;;;;;10.60;7.85;;;;;;;-144.26;100.00;64884.69;5034745;28;20378;-76
2024/01/26 02:21:57;;;;;;;9.55;7.50;;;;;;;-144.26;100.00;64884.69;5034848;28;20104;-76
2024/01/26 02:24:22;;;;;;;8.90;7.05;;;;;;;-144.26;100.00;64884.69;5034651;28;20160;-77
2024/01/26 02:26:48;;;;;;;10.18;7.53;;;;;;;-144.26;100.00;64884.69;5034360;28;20485;-76
2024/01/26 02:29:13;;;;;;;10.10;7.40;;;;;;;-144.26;100.00;64884.69;5120042;23;20077;-76
2024/01/26 02:35:00;;;;;;;9.50;6.82;;;;;;;-144.26;100.00;64884.69;5034700;28;20051;-76
2024/01/26 02:37:26;;;;;;;11.07;7.57;;;;;;;-144.26;100.00;64884.69;5033799;28;20473;-76
2024/01/26 02:39:51;;;;;;;9.43;6.80;;;;;;;-144.26;100.00;64884.69;5034099;28;20104;-77
2024/01/26 02:42:16;;;;;;;9.52;6.93;;;;;;;-144.26;100.00;64884.69;5016374;28;20092;-77
2024/01/26 02:44:42;;;;;;;10.13;7.07;;;;;;;-144.26;100.00;64884.69;5034217;28;20018;-77
2024/01/26 02:47:08;;;;;;;9.63;6.60;;;;;;;-144.26;100.00;64884.69;5034164;28;20022;-76
2024/01/26 02:49:34;;;;;;;8.95;6.40;;;;;;;-144.26;100.00;64884.69;5034338;28;20439;-77
2024/01/26 02:51:59;;;;;;;9.07;5.95;;;;;;;-144.26;100.00;64884.69;5033963;28;20026;-76
2024/01/26 02:54:24;;;;;;;9.63;6.05;;;;;;;-144.26;100.00;64884.69;5034085;28;20465;-76
2024/01/26 02:56:50;;;;;;;8.00;5.95;;;;;;;-144.26;100.00;64884.69;5033548;28;20160;-77
2024/01/26 02:59:15;;;;;;;9.05;6.07;;;;;;;-144.26;100.00;64884.69;5033932;28;20025;-76
2024/01/26 03:01:41;;;;;;;8.68;5.80;;;;;;;-144.26;100.00;64884.69;5033871;28;20037;-76
2024/01/26 03:04:06;;;;;;;8.15;5.97;;;;;;;-144.26;100.00;64884.69;5033827;28;20049;-76
2024/01/26 03:06:31;;;;;;;8.82;5.90;;;;;;;-144.26;100.00;64884.69;5033759;28;20429;-76
2024/01/26 03:08:57;;;;;;;10.10;5.90;;;;;;;-144.26;100.00;64884.69;5033973;28;20208;-76
2024/01/26 03:11:35;;;;;;;8.60;5.57;;;;;;;-144.26;100.00;64884.69;5033116;28;20072;-76
2024/01/26 03:14:00;;;;;;;8.77;5.78;;;;;;;-144.26;100.00;64884.69;5033551;28;20465;-76
2024/01/26 03:16:25;;;;;;;7.35;5.80;;;;;;;-144.26;100.00;64884.69;5033588;28;20117;-78
2024/01/26 03:18:51;;;;;;;10.45;6.18;;;;;;;-144.26;100.00;64884.69;5033603;28;20033;-77
2024/01/26 03:21:16;;;;;;;9.05;5.90;;;;;;;-144.26;100.00;64884.69;5033576;28;20025;-77
2024/01/26 03:23:41;;;;;;;7.78;6.13;;;;;;;-144.26;100.00;64884.69;5033431;28;20049;-76
2024/01/26 03:26:07;;;;;;;7.97;6.20;;;;;;;-144.26;100.00;64884.69;5033086;28;20061;-77
2024/01/26 03:28:32;;;;;;;10.43;6.90;;;;;;;-144.26;100.00;64884.69;5033410;28;20048;-77
2024/01/26 03:30:57;;;;;;;9.77;6.55;;;;;;;-144.26;100.00;64884.69;5033418;28;20358;-77
2024/01/26 03:33:23;;;;;;;8.77;5.80;;;;;;;-144.26;100.00;64884.69;5032823;28;20091;-76
2024/01/26 03:35:48;;;;;;;9.27;5.90;;;;;;;-144.26;100.00;64884.69;5015091;28;20037;-77
2024/01/26 03:38:13;;;;;;;8.80;6.15;;;;;;;-144.26;100.00;64884.69;5033205;28;20029;-77
2024/01/26 03:40:39;;;;;;;8.55;6.70;;;;;;;-144.26;100.00;64884.69;5032909;28;20091;-76
2024/01/26 03:43:04;;;;;;;8.88;6.00;;;;;;;-144.26;100.00;64884.69;5032834;28;20087;-78
2024/01/26 03:45:30;;;;;;;8.15;5.93;;;;;;;-144.26;100.00;64884.69;5033079;28;20033;-77
2024/01/26 03:47:55;;;;;;;9.52;6.43;;;;;;;-144.26;100.00;64884.69;5032422;28;20125;-76
2024/01/26 03:50:20;;;;;;;7.93;5.93;;;;;;;-144.26;100.00;64884.69;5032914;28;20100;-76
2024/01/26 03:52:46;;;;;;;9.35;6.10;;;;;;;-144.26;100.00;64884.69;5032849;28;20025;-76
2024/01/26 03:55:11;;;;;;;7.85;6.07;;;;;;;-144.26;100.00;64884.69;5033017;28;20040;-76
2024/01/26 03:57:37;;;;;;;9.38;5.90;;;;;;;-144.26;100.00;64884.69;5032767;28;20079;-77
2024/01/26 04:00:07;;;;;;;7.60;5.65;;;;;;;-144.26;100.00;64884.69;5032891;28;20388;-75
2024/01/26 04:02:32;;;;;;;8.13;5.72;;;;;;;-144.26;100.00;64884.69;5032782;28;20032;-77
2024/01/26 04:04:57;;;;;;;7.38;5.75;;;;;;;-144.26;100.00;64884.69;5032418;28;20033;-76
2024/01/26 04:07:23;;;;;;;9.30;5.85;;;;;;;-144.26;100.00;64884.69;5032664;28;20029;-76
2024/01/26 04:09:48;;;;;;;8.18;5.85;;;;;;;-144.26;100.00;64884.69;5032809;28;20030;-77
2024/01/26 04:12:13;;;;;;;9.25;6.15;;;;;;;-144.26;100.00;64884.69;5032230;28;20029;-78
2024/01/26 04:14:39;;;;;;;8.35;6.28;;;;;;;-144.26;100.00;64884.69;5032472;28;20025;-76
2024/01/26 04:17:04;;;;;;;10.82;6.60;;;;;;;-144.26;100.00;64884.69;5032584;28;20033;-76
2024/01/26 04:19:29;;;;;;;9.43;7.07;;;;;;;-144.26;100.00;64884.69;5032616;28;20474;-75
2024/01/26 04:21:55;;;;;;;9.30;6.43;;;;;;;-144.26;100.00;64884.69;5032370;28;20033;-78
2024/01/26 04:24:21;;;;;;;9.32;6.53;;;;;;;-144.26;100.00;64884.69;5032568;28;20033;-77
2024/01/26 04:26:46;;;;;;;9.88;7.13;;;;;;;-144.26;100.00;64884.69;5032317;28;20037;-77
2024/01/26 04:29:12;;;;;;;11.82;6.63;;;;;;;-144.26;100.00;64884.69;5014632;28;20041;-77
2024/01/26 04:31:41;;;;;;;12.85;8.10;;;;;;;-144.26;100.00;64884.69;5032221;28;20030;-76
2024/01/26 04:34:31;;;;;;;9.30;7.05;;;;;;;-144.26;100.00;64884.69;5081729;23;20054;-76
2024/01/26 04:36:57;;;;;;;12.35;7.80;;;;;;;-144.26;100.00;64884.69;5012830;28;20033;-76
2024/01/26 04:42:48;;;;;;;15.63;9.02;;;;;;;-144.26;100.00;64884.69;5012676;28;20163;-77
2024/01/26 04:45:19;;;;;;;12.80;7.93;;;;;;;-144.26;100.00;64884.69;5012480;28;20114;-76
2024/01/26 04:47:57;;;;;;;12.57;8.52;;;;;;;-144.26;100.00;64884.69;5012604;28;20101;-77
2024/01/26 04:50:30;;;;;;;11.25;8.30;;;;;;;-144.26;100.00;64884.69;5012482;28;20130;-76
2024/01/26 04:52:57;;;;;;;14.93;9.85;;;;;;;-144.26;100.00;64884.69;5012539;28;20072;-76
2024/01/26 04:55:31;;;;;;;12.75;8.73;;;;;;;-144.26;100.00;64884.69;5012444;28;20027;-76
2024/01/26 04:57:56;;;;;;;11.93;9.43;;;;;;;-144.26;100.00;64884.69;5108569;23;20043;-76
2024/01/26 05:00:22;;;;;;;13.75;9.45;;;;;;;-144.26;100.00;64884.69;5016240;28;20065;-78
2024/01/26 05:02:48;;;;;;;13.70;9.18;;;;;;;-144.26;100.00;64884.69;5035937;28;20035;-78
2024/01/26 05:05:14;;;;;;;13.85;9.70;;;;;;;-144.26;100.00;64884.69;5036284;28;20440;-76
2024/01/26 05:07:39;;;;;;;14.75;10.30;;;;;;;-144.26;100.00;64884.69;5018120;28;20516;-78
2024/01/26 05:10:06;;;;;;;12.27;9.80;;;;;;;-144.26;100.00;64884.69;5036071;28;20057;-78
2024/01/26 05:12:32;;;;;;;12.60;9.65;;;;;;;-144.26;100.00;64884.69;5035459;28;20124;-76
2024/01/26 05:14:57;;;;;;;12.48;9.57;;;;;;;-144.26;100.00;64884.69;5036074;28;20428;-78
2024/01/26 05:17:23;;;;;;;12.00;9.73;;;;;;;-144.26;100.00;64884.69;5035577;28;20028;-76
2024/01/26 05:19:48;;;;;;;14.48;9.85;;;;;;;-144.26;100.00;64884.69;5035931;28;20052;-79
2024/01/26 05:22:13;;;;;;;14.77;10.18;;;;;;;-144.26;100.00;64884.69;5035798;28;20438;-78
2024/01/26 05:24:39;;;;;;;12.23;9.70;;;;;;;-144.26;100.00;64884.69;5035652;28;20029;-77
2024/01/26 05:27:04;;;;;;;13.27;10.10;;;;;;;-144.26;100.00;64884.69;5035992;28;20027;-76
2024/01/26 05:29:30;;;;;;;12.23;9.65;;;;;;;-144.26;100.00;64884.69;5035612;28;20447;-78
2024/01/26 05:31:55;;;;;;;12.77;9.73;;;;;;;-144.26;100.00;64884.69;5035406;28;20026;-77
2024/01/26 05:34:21;;;;;;;15.35;10.20;;;;;;;-144.26;100.00;64884.69;5035691;28;20029;-79
2024/01/26 05:36:46;;;;;;;13.90;10.10;;;;;;;-144.26;100.00;64884.69;5035559;28;20075;-80
2024/01/26 05:39:12;;;;;;;11.98;8.73;;;;;;;-144.26;100.00;64884.69;5035471;28;20017;-78
2024/01/26 05:41:37;;;;;;;12.30;9.65;;;;;;;-144.26;100.00;64884.69;5035579;28;20052;-79
2024/01/26 05:44:03;;;;;;;11.93;9.13;;;;;;;-144.26;100.00;64884.69;5035248;28;20477;-79
2024/01/26 05:46:28;;;;;;;15.05;10.98;;;;;;;-144.26;100.00;64884.69;5035271;28;20029;-78
2024/01/26 05:48:55;;;;;;;15.50;11.23;;;;;;;-144.26;100.00;64884.69;5035254;28;20053;-79
2024/01/26 05:51:20;;;;;;;14.82;10.48;;;;;;;-144.26;100.00;64884.69;5035124;28;20022;-77
2024/01/26 05:53:46;;;;;;;13.23;9.77;;;;;;;-144.26;100.00;64884.69;5035535;28;20025;-77
2024/01/26 05:56:11;;;;;;;11.65;9.10;;;;;;;-144.26;100.00;64884.69;5017690;28;20057;-77
2024/01/26 05:58:37;;;;;;;13.43;9.65;;;;;;;-144.26;100.00;64884.69;5035042;28;20076;-77
2024/01/26 06:01:02;;;;;;;13.93;10.38;;;;;;;-144.26;100.00;64884.69;5035110;28;20069;-77
2024/01/26 06:03:28;;;;;;;12.68;9.52;;;;;;;-144.26;100.00;64884.69;5035043;28;20034;-76
2024/01/26 06:05:53;;;;;;;13.20;10.23;;;;;;;-144.26;100.00;64884.69;5035026;28;20032;-75
2024/01/26 06:08:19;;;;;;;12.50;9.63;;;;;;;-144.26;100.00;64884.69;5035250;28;20041;-76
2024/01/26 06:10:44;;;;;;;14.85;10.85;;;;;;;-144.26;100.00;64884.69;5034464;28;20484;-75
2024/01/26 06:13:09;;;;;;;13.93;10.50;;;;;;;-144.26;100.00;64884.69;5034294;28;20029;-76
2024/01/26 06:15:35;;;;;;;13.85;10.73;;;;;;;-144.26;100.00;64884.69;5034851;28;20110;-76
2024/01/26 06:18:01;;;;;;;15.82;11.07;;;;;;;-144.26;100.00;64884.69;5035217;28;20359;-76
2024/01/26 06:20:31;;;;;;;13.80;10.48;;;;;;;-144.26;100.00;64884.69;5034687;28;20128;-77
2024/01/26 06:22:57;;;;;;;17.40;11.43;;;;;;;-144.26;100.00;64884.69;5035000;28;20029;-78
2024/01/26 06:25:22;;;;;;;14.70;11.57;;;;;;;-144.26;100.00;64884.69;5034922;28;20393;-77
2024/01/26 06:27:47;;;;;;;15.68;11.57;;;;;;;-144.26;100.00;64884.69;5034634;28;20030;-77
2024/01/26 06:30:13;;;;;;;14.30;11.02;;;;;;;-144.26;100.00;64884.69;5034531;28;20034;-76
2024/01/26 06:32:42;;;;;;;15.48;11.27;;;;;;;-144.26;100.00;64884.69;5034535;28;20037;-76
2024/01/26 06:35:08;;;;;;;17.27;11.30;;;;;;;-144.26;100.00;64884.69;5034610;28;20091;-76
2024/01/26 06:37:33;;;;;;;16.42;11.82;;;;;;;-144.26;100.00;64884.69;5016683;28;20023;-77
2024/01/26 06:39:58;;;;;;;15.77;11.52;;;;;;;-144.26;100.00;64884.69;5034758;28;20033;-78
2024/01/26 06:42:25;;;;;;;17.83;11.90;;;;;;;-144.26;100.00;64884.69;5034172;28;20507;-77
2024/01/26 06:44:54;;;;;;;16.27;11.88;;;;;;;-144.26;100.00;64884.69;5034308;28;20026;-76
2024/01/26 06:47:19;;;;;;;15.32;11.38;;;;;;;-144.26;100.00;64884.69;5034329;28;20036;-79
2024/01/26 06:52:26;;;;;;;14.35;10.43;;;;;;;-144.26;100.00;64884.69;5178999;23;20076;-76
2024/01/26 06:54:52;;;;;;;14.55;11.10;;;;;;;-144.26;100.00;64884.69;5034010;28;20029;-75
2024/01/26 06:57:54;;;;;;;15.02;11.23;;;;;;;-144.26;100.00;64884.69;5034293;28;20121;-76
2024/01/26 07:00:54;;;;;;;15.60;10.60;;;;;;;-144.26;100.00;64884.69;5033577;28;20053;-74
2024/01/26 07:03:37;;;;;;;13.70;10.65;;;;;;;-144.26;100.00;64884.69;4972870;28;20043;-76
2024/01/26 07:09:26;;;;;;;14.98;11.30;;;;;;;-144.26;100.00;64884.69;4953883;29;20078;-78
2024/01/26 07:12:09;;;;;;;15.48;11.65;;;;;;;-144.26;100.00;64884.69;4953607;29;20027;-77
2024/01/26 07:18:10;;;;;;;15.00;11.95;;;;;;;-144.26;100.00;64884.69;4113865;26;20046;-78
2024/01/26 07:20:41;;;;;;;15.85;12.40;;;;;;;-144.26;100.00;64884.69;4953278;29;20114;-78
2024/01/26 07:26:41;;;;;;;17.90;11.88;;;;;;;-144.26;100.00;64884.69;5097854;23;20052;-78
2024/01/26 07:29:07;;;;;;;17.17;12.10;;;;;;;-144.26;100.00;64884.69;5034070;28;20041;-73
2024/01/26 07:31:32;;;;;;;15.18;11.77;;;;;;;-144.26;100.00;64884.69;5033485;28;20377;-75
2024/01/26 07:33:58;;;;;;;16.95;11.50;;;;;;;-144.26;100.00;64884.69;5033157;28;20503;-75
2024/01/26 07:36:23;;;;;;;13.85;11.45;;;;;;;-144.26;100.00;64884.69;5033328;28;20033;-76
2024/01/26 07:39:05;;;;;;;15.38;12.15;;;;;;;-144.26;100.00;64884.69;5176461;23;21461;-77
2024/01/26 07:41:49;;;;;;;13.75;11.30;;;;;;;-144.26;100.00;64884.69;4988083;28;20050;-75
2024/01/26 07:44:17;;;;;;;17.88;11.20;;;;;;;-144.26;100.00;64884.69;4993701;28;20030;-77
2024/01/26 07:46:43;;;;;;;14.82;10.57;;;;;;;-144.26;100.00;64884.69;4976405;28;20053;-78
2024/01/26 07:49:08;;;;;;;13.70;10.98;;;;;;;-144.26;100.00;64884.69;4993980;28;20400;-77
2024/01/26 07:51:33;;;;;;;13.52;11.02;;;;;;;-144.26;100.00;64884.69;4993653;28;20041;-77
2024/01/26 07:53:59;;;;;;;12.60;10.65;;;;;;;-144.26;100.00;64884.69;4994004;28;20030;-76
2024/01/26 07:56:24;;;;;;;14.35;10.55;;;;;;;-144.26;100.00;64884.69;4993548;28;20042;-77
2024/01/26 07:58:50;;;;;;;13.40;10.88;;;;;;;-144.26;100.00;64884.69;4993703;28;20034;-75
2024/01/26 08:01:15;;;;;;;15.27;11.50;;;;;;;-144.26;100.00;64884.69;4993446;28;20026;-78
2024/01/26 08:03:40;;;;;;;14.75;11.65;;;;;;;-144.26;100.00;64884.69;4993649;28;20497;-77
2024/01/26 08:06:06;;;;;;;13.48;11.07;;;;;;;-144.26;100.00;64884.69;4993449;28;20037;-79
2024/01/26 08:08:31;;;;;;;13.70;11.32;;;;;;;-144.26;100.00;64884.69;4993719;28;20023;-78
2024/01/26 08:10:57;;;;;;;13.07;10.48;;;;;;;-144.26;100.00;64884.69;4993450;28;20026;-78
2024/01/26 08:13:23;;;;;;;13.77;10.80;;;;;;;-144.26;100.00;64884.69;4993454;28;20168;-80
2024/01/26 08:15:48;;;;;;;11.85;10.10;;;;;;;-144.26;100.00;64884.69;4993076;28;20026;-80
2024/01/26 08:18:14;;;;;;;12.25;9.73;;;;;;;-144.26;100.00;64884.69;4992267;28;20454;-75
2024/01/26 08:20:40;;;;;;;12.32;10.55;;;;;;;-144.26;100.00;64884.69;4976059;28;20394;-78
2024/01/26 08:23:05;;;;;;;16.27;10.35;;;;;;;-144.26;100.00;64884.69;4993568;28;20026;-83
2024/01/26 08:25:32;;;;;;;14.13;10.95;;;;;;;-144.26;100.00;64884.69;4993221;28;20080;-81
2024/01/26 08:27:57;;;;;;;12.80;10.35;;;;;;;-144.26;100.00;64884.69;4993405;28;20367;-79
2024/01/26 08:30:26;;;;;;;14.15;10.63;;;;;;;-144.26;100.00;64884.69;4993015;28;20030;-81
2024/01/26 08:32:51;;;;;;;13.15;10.20;;;;;;;-144.26;100.00;64884.69;4993015;28;20031;-81
2024/01/26 08:35:17;;;;;;;15.05;10.30;;;;;;;-144.26;100.00;64884.69;4992524;28;20038;-81
2024/01/26 08:37:43;;;;;;;13.70;10.80;;;;;;;-144.26;100.00;64884.69;4975939;28;20030;-81
2024/01/26 08:40:12;;;;;;;13.43;10.45;;;;;;;-144.26;100.00;64884.69;4993095;28;20042;-81
2024/01/26 08:42:37;;;;;;;12.98;10.75;;;;;;;-144.26;100.00;64884.69;4993327;28;20490;-80
2024/01/26 08:45:03;;;;;;;13.68;10.52;;;;;;;-144.26;100.00;64884.69;4993194;28;20050;-81
2024/01/26 08:47:29;;;;;;;13.93;11.15;;;;;;;-144.26;100.00;64884.69;4992724;28;20375;-81
2024/01/26 08:49:55;;;;;;;13.60;10.70;;;;;;;-144.26;100.00;64884.69;4993273;28;20089;-81
2024/01/26 08:52:20;;;;;;;12.75;10.70;;;;;;;-144.26;100.00;64884.69;4993098;28;20023;-81
2024/01/26 08:54:46;;;;;;;13.80;10.52;;;;;;;-144.26;100.00;64884.69;4993242;28;20402;-81
2024/01/26 08:57:11;;;;;;;12.65;10.38;;;;;;;-144.26;100.00;64884.69;4993043;28;20105;-81
2024/01/26 08:59:38;;;;;;;12.98;9.98;;;;;;;-144.26;100.00;64884.69;4992883;28;20023;-81
2024/01/26 09:02:04;;;;;;;13.80;10.48;;;;;;;-144.26;100.00;64884.69;4992767;28;20018;-81
2024/01/26 09:04:36;;;;;;;13.40;10.38;;;;;;;-144.26;100.00;64884.69;4989679;28;20053;-79
2024/01/26 09:07:01;;;;;;;13.10;10.60;;;;;;;-144.26;100.00;64884.69;4975796;28;20026;-81
2024/01/26 09:09:30;;;;;;;13.73;11.00;;;;;;;-144.26;100.00;64884.69;4992724;28;20030;-81
2024/01/26 09:11:55;;;;;;;13.63;10.30;;;;;;;-144.26;100.00;64884.69;4992720;28;20045;-80
2024/01/26 09:15:04;;;;;;;11.73;9.15;;;;;;;-144.26;100.00;64884.69;4992821;28;20033;-80
2024/01/26 09:17:29;;;;;;;11.68;8.55;;;;;;;-144.26;100.00;64884.69;4991265;28;20030;-77
2024/01/26 09:19:55;;;;;;;10.07;7.40;;;;;;;-144.26;100.00;64884.69;4975658;28;20359;-79
2024/01/26 09:22:30;;;;;;;9.23;6.10;;;;;;;-144.26;100.00;64884.69;4993113;28;20386;-80
2024/01/26 09:25:33;;;;;;;6.97;3.25;;;;;;;-144.26;100.00;64884.69;4992788;28;20061;-80
2024/01/26 09:27:58;;;;;;;6.95;2.30;;;;;;;-144.26;100.00;64884.69;4992627;28;20490;-80
2024/01/26 09:30:26;;;;;;;6.65;2.05;;;;;;;-144.26;100.00;64884.69;4992640;28;20026;-82
2024/01/26 09:32:52;;;;;;;5.47;1.90;;;;;;;-144.26;100.00;64884.69;4974975;28;20479;-80
2024/01/26 09:35:17;;;;;;;7.93;2.05;;;;;;;-144.26;100.00;64884.69;4985516;28;20030;-80
2024/01/26 09:37:43;;;;;;;11.57;2.78;;;;;;;-144.26;100.00;64884.69;4992695;28;20035;-81
2024/01/26 09:40:14;;;;;;;9.13;2.15;;;;;;;-144.26;100.00;64884.69;4992361;28;20406;-80
2024/01/26 09:42:40;;;;;;;12.65;2.10;;;;;;;-144.26;100.00;64884.69;4992622;28;20487;-80
2024/01/26 09:45:06;;;;;;;8.05;2.13;;;;;;;-144.26;100.00;64884.69;4992982;28;20018;-80
2024/01/26 09:47:35;;;;;;;9.43;2.55;;;;;;;-144.26;100.00;64884.69;4994556;28;20026;-80
2024/01/26 09:50:03;;;;;;;4.68;1.40;;;;;;;-144.26;100.00;64884.69;4996043;28;20496;-80
2024/01/26 09:52:29;;;;;;;7.03;1.45;;;;;;;-144.26;100.00;64884.69;4995850;28;20508;-79
2024/01/26 09:54:55;;;;;;;8.52;1.83;;;;;;;-144.26;100.00;64884.69;4996208;28;20426;-80
2024/01/26 09:57:25;;;;;;;7.32;1.50;;;;;;;-144.26;100.00;64884.69;4995764;28;20030;-77
2024/01/26 09:59:51;;;;;;;9.80;2.00;;;;;;;-144.26;100.00;64884.69;4996005;28;20061;-81
2024/01/26 10:02:17;;;;;;;9.38;2.20;;;;;;;-144.26;100.00;64884.69;4995665;28;20037;-82
2024/01/26 10:04:43;;;;;;;8.23;1.80;;;;;;;-144.26;100.00;64884.69;4995799;28;20030;-81
2024/01/26 10:07:09;;;;;;;6.35;1.50;;;;;;;-144.26;100.00;64884.69;4995647;28;20074;-79
2024/01/26 10:09:35;;;;;;;9.18;1.70;;;;;;;-144.26;100.00;64884.69;4995648;28;20375;-80
2024/01/26 10:12:01;;;;;;;8.43;2.20;;;;;;;-144.26;100.00;64884.69;4995575;28;20038;-81
2024/01/26 10:14:26;;;;;;;9.02;1.90;;;;;;;-144.26;100.00;64884.69;4995885;28;20367;-82
2024/01/26 10:16:58;;;;;;;12.10;2.67;;;;;;;-144.26;100.00;64884.69;4995544;28;20045;-81
2024/01/26 10:19:28;;;;;;;8.13;2.00;;;;;;;-144.26;100.00;64884.69;4995428;28;20036;-82
2024/01/26 10:21:54;;;;;;;7.30;1.58;;;;;;;-144.26;100.00;64884.69;4995435;28;20478;-80
2024/01/26 10:24:27;;;;;;;8.32;1.85;;;;;;;-144.26;100.00;64884.69;4995749;28;20018;-81
2024/01/26 10:26:55;;;;;;;10.07;2.13;;;;;;;-144.26;100.00;64884.69;5024018;23;20162;-80
2024/01/26 10:29:29;;;;;;;11.35;2.30;;;;;;;-144.26;100.00;64884.69;5034622;28;20461;-80
2024/01/26 10:32:02;;;;;;;9.52;2.63;;;;;;;-144.26;100.00;64884.69;5034429;28;20021;-80
2024/01/26 10:34:34;;;;;;;9.40;2.15;;;;;;;-144.26;100.00;64884.69;5034290;28;20029;-78
2024/01/26 10:37:07;;;;;;;13.52;2.03;;;;;;;-144.26;100.00;64884.69;5034567;28;20025;-80
2024/01/26 10:42:47;;;;;;;13.98;2.20;;;;;;;-144.26;100.00;64884.69;5034652;28;20167;-79
2024/01/26 10:45:13;;;;;;;15.07;2.50;;;;;;;-144.26;100.00;64884.69;5034217;28;20041;-80
2024/01/26 10:47:47;;;;;;;7.15;2.42;;;;;;;-144.26;100.00;64884.69;5034172;28;20021;-80
2024/01/26 10:50:12;;;;;;;10.30;2.00;;;;;;;-144.26;100.00;64884.69;5034287;28;20141;-82
2024/01/26 10:52:38;;;;;;;10.73;2.70;;;;;;;-144.26;100.00;64884.69;5034020;28;20068;-81
2024/01/26 10:55:05;;;;;;;10.65;2.42;;;;;;;-144.26;100.00;64884.69;5034189;28;20029;-79
2024/01/26 10:57:30;;;;;;;11.52;2.28;;;;;;;-144.26;100.00;64884.69;5033620;28;20104;-80
2024/01/26 10:59:56;;;;;;;8.80;1.67;;;;;;;-144.26;100.00;64884.69;5034117;28;20519;-81
2024/01/26 11:02:29;;;;;;;6.97;1.73;;;;;;;-144.26;100.00;64884.69;5034051;28;20056;-80
2024/01/26 11:04:57;;;;;;;5.97;1.25;;;;;;;-144.26;100.00;64884.69;5034053;28;20025;-80
2024/01/26 11:07:23;;;;;;;8.25;1.65;;;;;;;-144.26;100.00;64884.69;5034045;28;20050;-80
2024/01/26 11:09:50;;;;;;;6.80;1.58;;;;;;;-144.26;100.00;64884.69;5033752;28;20064;-77
2024/01/26 11:12:21;;;;;;;7.43;1.08;;;;;;;-144.26;100.00;64884.69;5033616;28;20029;-75
2024/01/26 11:14:47;;;;;;;7.57;1.40;;;;;;;-144.26;100.00;64884.69;5032276;28;20059;-74
2024/01/26 11:17:13;;;;;;;4.38;1.40;;;;;;;-144.26;100.00;64884.69;5034359;28;20022;-77
2024/01/26 11:19:38;;;;;;;4.97;1.30;;;;;;;-144.26;100.00;64884.69;5033656;28;20025;-76
2024/01/26 11:22:19;;;;;;;7.95;1.10;;;;;;;-144.26;100.00;64884.69;5033551;28;20067;-75
2024/01/26 11:24:45;;;;;;;5.97;1.30;;;;;;;-144.26;100.00;64884.69;5048926;23;20059;-76